EKAHLPMA

Guest
Details From EKAH - Aarhus
To LPMA - Madeira
Flight Number -
Tags Generated
Created
Modified
Stats Distance 1,816 nm / 3,364 km
Max Altitude 0 ft / 0 m
Waypoints 7
Social Downloads 4
Likes 0
Share VATSIM

Download

Looking for another format? Having issues loading an existing format? Contact us
Advertisement - Login to hide

Notes

Generated

Route

EKAH DVR PNT DEMOS ASMAR MAD LPMA

ID Type Via Altitude Latitude Longitude Leg Dist Tot Dist Heading (true) Name
O EKAH APT - 0 ft / 0 m 56.30549˚ 10.59757˚ - 0 nm - -
DVR VOR - 0 ft / 0 m 51.16250˚ 1.35917˚ 449 nm 449 nm 231° / 223° DOVER VOR-DME
PNT NDB - 0 ft / 0 m 48.05111˚ -2.79444˚ 247 nm 696 nm 222° / 219° Pontivy NDB
DEMOS FIX - 0 ft / 0 m 41.92583˚ -9.36194˚ 461 nm 1158 nm 220° / 215° -
ASMAR FIX - 0 ft / 0 m 39.37250˚ -11.59556˚ 184 nm 1342 nm 214° / 213° -
MAD NDB - 0 ft / 0 m 32.74813˚ -16.70651˚ 468 nm 1811 nm 213° / 210° MADEIRA NDB
O LPMA APT - 0 ft / 0 m 32.68900˚ -16.78409˚ 5 nm 1816 nm 228° / 228° -

Altitude Profile

Advertisement - Login to hide

Weather


0- 5 10 15 20 25 30 35+ Temperature / ° C

Clouds and Precipitation
Forecast for 2017-12-17 12:00 UTC. Updated an hour ago

Ground ~20,000 ft ~40,000 ft Winds

EKAH

Details ICAO EKAH (AAR)
Name Aarhus
Region Denmark / Faroe Islands
Timezone Europe/Copenhagen (UTC+1.0)
Stats Elevation 82 ft / 25 m (AMSL)
Location 56.304265° 10.619452°
Runways 2
Magnetic Variation 3.052° E

METAR

EKAH 171020Z AUTO 28003KT 9999NDV NCD 00/00 Q1018 R99/590195

Decode

TAF

TAF EKAH 170518Z 1706/1806 28006KT 9999 SCT025 TEMPO 1706/1708 BKN010 BECMG 1712/1715 18008KT TEMPO 1800/1806 BKN008

Decode

Departure Runways

ID Width Length Bearing (true) Bearing (mag) Surface Threshold Offset Overrun Length
10L 75 ft / 23 m 9,081 ft / 2,768 m 100.30° 97.25° Asphalt 0 ft / 0 m 0 ft / 0 m
10R 148 ft / 45 m 8,837 ft / 2,693 m 100.29° 97.24° Asphalt 0 ft / 0 m 902 ft / 275 m
28L 148 ft / 45 m 8,837 ft / 2,693 m 280.33° 277.28° Asphalt 0 ft / 0 m 738 ft / 225 m
28R 75 ft / 23 m 9,081 ft / 2,768 m 280.34° 277.29° Asphalt 0 ft / 0 m 0 ft / 0 m

LPMA

Details ICAO LPMA (FNC)
Name Madeira
Region Portugal
Timezone Atlantic/Madeira (UTC+0.0)
Stats Elevation 192 ft / 59 m (AMSL)
Location 32.697704° -16.774449°
Runways 1
Magnetic Variation 4.981° W

METAR

LPMA 171000Z 02015G27KT 350V050 9999 SCT015 SCT030 17/10 Q1028

Decode

TAF

TAF LPMA 170500Z 1706/1806 02015KT 9999 SCT015 TEMPO 1706/1806 BKN015 PROB40 TEMPO 1706/1721 02018G30KT

Decode

Destination Runways

ID Width Length Bearing (true) Bearing (mag) Surface Threshold Offset Overrun Length
05 141 ft / 43 m 8,683 ft / 2,647 m 42.98° 47.96° Asphalt 472 ft / 144 m 0 ft / 0 m
23 141 ft / 43 m 8,683 ft / 2,647 m 222.99° 227.97° Asphalt 466 ft / 142 m 0 ft / 0 m

Popular Alternatives